sensor_id;sensor_type;location;lat;lon;timestamp;P1;durP1;ratioP1;P2;durP2;ratioP2
77876;SDS011;67251;50.844;7.978;2023-10-13T00:00:35;12.73;;;5.35;;
77876;SDS011;67251;50.844;7.978;2023-10-13T00:03:05;11.63;;;4.90;;
77876;SDS011;67251;50.844;7.978;2023-10-13T00:05:39;13.27;;;4.85;;
77876;SDS011;67251;50.844;7.978;2023-10-13T00:08:06;9.70;;;5.57;;
77876;SDS011;67251;50.844;7.978;2023-10-13T00:10:33;12.43;;;4.97;;
77876;SDS011;67251;50.844;7.978;2023-10-13T00:12:59;12.23;;;4.85;;
77876;SDS011;67251;50.844;7.978;2023-10-13T00:15:43;9.90;;;4.70;;
77876;SDS011;67251;50.844;7.978;2023-10-13T00:18:26;9.18;;;4.60;;
77876;SDS011;67251;50.844;7.978;2023-10-13T00:20:58;11.05;;;5.28;;
77876;SDS011;67251;50.844;7.978;2023-10-13T00:23:23;13.77;;;5.72;;
77876;SDS011;67251;50.844;7.978;2023-10-13T00:25:52;10.73;;;4.57;;
77876;SDS011;67251;50.844;7.978;2023-10-13T00:28:24;10.45;;;5.10;;
77876;SDS011;67251;50.844;7.978;2023-10-13T00:31:00;9.85;;;4.90;;
77876;SDS011;67251;50.844;7.978;2023-10-13T00:33:28;11.18;;;4.88;;
77876;SDS011;67251;50.844;7.978;2023-10-13T00:35:57;9.98;;;4.80;;
77876;SDS011;67251;50.844;7.978;2023-10-13T00:38:23;11.18;;;5.10;;
77876;SDS011;67251;50.844;7.978;2023-10-13T00:40:49;11.57;;;4.93;;
77876;SDS011;67251;50.844;7.978;2023-10-13T00:43:21;11.45;;;5.47;;
77876;SDS011;67251;50.844;7.978;2023-10-13T00:45:51;9.18;;;4.57;;
77876;SDS011;67251;50.844;7.978;2023-10-13T00:48:38;11.27;;;4.88;;
77876;SDS011;67251;50.844;7.978;2023-10-13T00:51:08;10.30;;;4.90;;
77876;SDS011;67251;50.844;7.978;2023-10-13T00:53:56;12.25;;;5.35;;
77876;SDS011;67251;50.844;7.978;2023-10-13T00:56:22;10.63;;;4.45;;
77876;SDS011;67251;50.844;7.978;2023-10-13T00:58:52;10.80;;;4.82;;
77876;SDS011;67251;50.844;7.978;2023-10-13T01:01:21;9.90;;;4.95;;
77876;SDS011;67251;50.844;7.978;2023-10-13T01:03:47;9.68;;;4.82;;
77876;SDS011;67251;50.844;7.978;2023-10-13T01:06:20;8.85;;;4.55;;
77876;SDS011;67251;50.844;7.978;2023-10-13T01:08:56;8.90;;;4.28;;
77876;SDS011;67251;50.844;7.978;2023-10-13T01:11:25;9.10;;;4.35;;
77876;SDS011;67251;50.844;7.978;2023-10-13T01:13:55;9.13;;;3.95;;
77876;SDS011;67251;50.844;7.978;2023-10-13T01:16:22;9.50;;;4.70;;
77876;SDS011;67251;50.844;7.978;2023-10-13T01:18:56;9.52;;;4.38;;
77876;SDS011;67251;50.844;7.978;2023-10-13T01:21:24;9.55;;;4.65;;
77876;SDS011;67251;50.844;7.978;2023-10-13T01:23:53;10.73;;;5.00;;
77876;SDS011;67251;50.844;7.978;2023-10-13T01:26:18;10.30;;;5.00;;
77876;SDS011;67251;50.844;7.978;2023-10-13T01:28:56;8.90;;;4.32;;
77876;SDS011;67251;50.844;7.978;2023-10-13T01:31:22;9.55;;;4.60;;
77876;SDS011;67251;50.844;7.978;2023-10-13T01:33:56;10.50;;;4.90;;
77876;SDS011;67251;50.844;7.978;2023-10-13T01:36:27;12.45;;;4.38;;
77876;SDS011;67251;50.844;7.978;2023-10-13T01:38:53;11.50;;;4.45;;
77876;SDS011;67251;50.844;7.978;2023-10-13T01:41:21;12.63;;;4.72;;
77876;SDS011;67251;50.844;7.978;2023-10-13T01:49:12;11.77;;;4.95;;
77876;SDS011;67251;50.844;7.978;2023-10-13T01:51:38;12.27;;;5.18;;
77876;SDS011;67251;50.844;7.978;2023-10-13T01:54:04;9.30;;;4.60;;
77876;SDS011;67251;50.844;7.978;2023-10-13T01:56:36;11.80;;;5.53;;
77876;SDS011;67251;50.844;7.978;2023-10-13T01:59:07;11.00;;;5.82;;
77876;SDS011;67251;50.844;7.978;2023-10-13T02:01:34;12.88;;;5.43;;
77876;SDS011;67251;50.844;7.978;2023-10-13T02:04:00;12.45;;;5.97;;
77876;SDS011;67251;50.844;7.978;2023-10-13T02:06:30;11.95;;;4.93;;
77876;SDS011;67251;50.844;7.978;2023-10-13T02:09:03;12.20;;;5.00;;
77876;SDS011;67251;50.844;7.978;2023-10-13T02:11:38;11.65;;;5.00;;
77876;SDS011;67251;50.844;7.978;2023-10-13T02:14:08;10.85;;;4.63;;
77876;SDS011;67251;50.844;7.978;2023-10-13T02:16:36;11.18;;;4.85;;
77876;SDS011;67251;50.844;7.978;2023-10-13T02:19:01;11.80;;;5.57;;
77876;SDS011;67251;50.844;7.978;2023-10-13T02:21:31;10.88;;;5.03;;
77876;SDS011;67251;50.844;7.978;2023-10-13T02:24:00;9.73;;;5.80;;
77876;SDS011;67251;50.844;7.978;2023-10-13T02:26:26;12.23;;;6.57;;
77876;SDS011;67251;50.844;7.978;2023-10-13T02:29:04;10.70;;;6.00;;
77876;SDS011;67251;50.844;7.978;2023-10-13T02:31:33;11.77;;;6.45;;
77876;SDS011;67251;50.844;7.978;2023-10-13T02:34:00;14.32;;;6.38;;
77876;SDS011;67251;50.844;7.978;2023-10-13T02:36:31;14.77;;;5.80;;
77876;SDS011;67251;50.844;7.978;2023-10-13T02:39:05;12.60;;;6.32;;
77876;SDS011;67251;50.844;7.978;2023-10-13T02:41:34;11.20;;;5.47;;
77876;SDS011;67251;50.844;7.978;2023-10-13T02:44:03;13.23;;;5.63;;
77876;SDS011;67251;50.844;7.978;2023-10-13T02:46:45;13.65;;;5.95;;
77876;SDS011;67251;50.844;7.978;2023-10-13T02:49:15;11.55;;;5.65;;
77876;SDS011;67251;50.844;7.978;2023-10-13T02:51:44;12.25;;;5.57;;
77876;SDS011;67251;50.844;7.978;2023-10-13T02:54:10;12.77;;;5.25;;
77876;SDS011;67251;50.844;7.978;2023-10-13T02:56:36;15.52;;;6.45;;
77876;SDS011;67251;50.844;7.978;2023-10-13T02:59:24;12.07;;;5.43;;
77876;SDS011;67251;50.844;7.978;2023-10-13T03:02:05;12.93;;;5.68;;
77876;SDS011;67251;50.844;7.978;2023-10-13T03:04:50;11.02;;;5.68;;
77876;SDS011;67251;50.844;7.978;2023-10-13T03:07:34;10.90;;;5.05;;
77876;SDS011;67251;50.844;7.978;2023-10-13T03:10:01;15.82;;;5.90;;
77876;SDS011;67251;50.844;7.978;2023-10-13T03:12:34;12.75;;;5.90;;
77876;SDS011;67251;50.844;7.978;2023-10-13T03:15:01;11.80;;;6.00;;
77876;SDS011;67251;50.844;7.978;2023-10-13T03:17:42;12.20;;;5.45;;
77876;SDS011;67251;50.844;7.978;2023-10-13T03:20:11;11.30;;;5.30;;
77876;SDS011;67251;50.844;7.978;2023-10-13T03:22:44;18.52;;;6.55;;
77876;SDS011;67251;50.844;7.978;2023-10-13T03:25:12;10.65;;;5.43;;
77876;SDS011;67251;50.844;7.978;2023-10-13T03:27:53;12.88;;;5.20;;
77876;SDS011;67251;50.844;7.978;2023-10-13T03:30:19;10.90;;;5.22;;
77876;SDS011;67251;50.844;7.978;2023-10-13T03:32:46;10.90;;;5.70;;
77876;SDS011;67251;50.844;7.978;2023-10-13T03:35:15;14.98;;;6.35;;
77876;SDS011;67251;50.844;7.978;2023-10-13T03:37:52;11.10;;;5.35;;
77876;SDS011;67251;50.844;7.978;2023-10-13T03:40:18;12.85;;;5.30;;
77876;SDS011;67251;50.844;7.978;2023-10-13T03:42:49;11.45;;;5.47;;
77876;SDS011;67251;50.844;7.978;2023-10-13T03:45:42;9.30;;;4.82;;
77876;SDS011;67251;50.844;7.978;2023-10-13T03:48:15;13.85;;;6.03;;
77876;SDS011;67251;50.844;7.978;2023-10-13T03:50:52;13.48;;;6.25;;
77876;SDS011;67251;50.844;7.978;2023-10-13T03:53:40;12.68;;;5.57;;
77876;SDS011;67251;50.844;7.978;2023-10-13T03:56:18;11.38;;;5.15;;
77876;SDS011;67251;50.844;7.978;2023-10-13T03:59:03;13.68;;;6.38;;
77876;SDS011;67251;50.844;7.978;2023-10-13T04:01:31;11.93;;;5.75;;
77876;SDS011;67251;50.844;7.978;2023-10-13T04:04:09;11.88;;;5.82;;
77876;SDS011;67251;50.844;7.978;2023-10-13T04:06:37;12.25;;;5.68;;
77876;SDS011;67251;50.844;7.978;2023-10-13T04:09:20;11.68;;;5.82;;
77876;SDS011;67251;50.844;7.978;2023-10-13T04:11:49;12.70;;;6.18;;
77876;SDS011;67251;50.844;7.978;2023-10-13T04:14:35;10.55;;;5.55;;
77876;SDS011;67251;50.844;7.978;2023-10-13T04:17:11;13.45;;;6.47;;
77876;SDS011;67251;50.844;7.978;2023-10-13T04:19:42;13.05;;;5.97;;
77876;SDS011;67251;50.844;7.978;2023-10-13T04:22:27;11.52;;;6.45;;
77876;SDS011;67251;50.844;7.978;2023-10-13T04:25:20;12.13;;;5.70;;
77876;SDS011;67251;50.844;7.978;2023-10-13T04:28:05;13.02;;;6.13;;
77876;SDS011;67251;50.844;7.978;2023-10-13T04:30:37;14.45;;;5.97;;
77876;SDS011;67251;50.844;7.978;2023-10-13T04:33:18;12.60;;;5.90;;
77876;SDS011;67251;50.844;7.978;2023-10-13T04:38:43;11.65;;;5.93;;
77876;SDS011;67251;50.844;7.978;2023-10-13T04:41:21;10.50;;;5.50;;
77876;SDS011;67251;50.844;7.978;2023-10-13T04:43:48;13.25;;;5.43;;
77876;SDS011;67251;50.844;7.978;2023-10-13T04:46:20;11.18;;;5.82;;
77876;SDS011;67251;50.844;7.978;2023-10-13T04:49:05;9.63;;;4.93;;
77876;SDS011;67251;50.844;7.978;2023-10-13T04:51:55;11.02;;;5.47;;
77876;SDS011;67251;50.844;7.978;2023-10-13T04:54:26;12.15;;;5.20;;
77876;SDS011;67251;50.844;7.978;2023-10-13T04:56:58;13.23;;;5.57;;
77876;SDS011;67251;50.844;7.978;2023-10-13T04:59:23;14.23;;;5.28;;
77876;SDS011;67251;50.844;7.978;2023-10-13T05:02:02;13.20;;;5.85;;
77876;SDS011;67251;50.844;7.978;2023-10-13T05:04:46;11.73;;;5.60;;
77876;SDS011;67251;50.844;7.978;2023-10-13T05:07:30;8.88;;;5.05;;
77876;SDS011;67251;50.844;7.978;2023-10-13T05:10:17;9.35;;;5.00;;
77876;SDS011;67251;50.844;7.978;2023-10-13T05:13:01;9.23;;;4.75;;
77876;SDS011;67251;50.844;7.978;2023-10-13T05:15:49;10.85;;;5.50;;
77876;SDS011;67251;50.844;7.978;2023-10-13T05:21:18;9.27;;;4.82;;
77876;SDS011;67251;50.844;7.978;2023-10-13T05:24:15;8.68;;;4.70;;
77876;SDS011;67251;50.844;7.978;2023-10-13T05:26:59;10.93;;;4.72;;
77876;SDS011;67251;50.844;7.978;2023-10-13T05:29:43;11.23;;;5.85;;
77876;SDS011;67251;50.844;7.978;2023-10-13T05:32:28;12.73;;;5.15;;
77876;SDS011;67251;50.844;7.978;2023-10-13T05:35:13;11.65;;;5.25;;
77876;SDS011;67251;50.844;7.978;2023-10-13T05:37:57;11.10;;;5.00;;
77876;SDS011;67251;50.844;7.978;2023-10-13T05:40:51;10.60;;;4.53;;
77876;SDS011;67251;50.844;7.978;2023-10-13T05:43:40;12.38;;;4.88;;
77876;SDS011;67251;50.844;7.978;2023-10-13T05:46:24;12.57;;;4.85;;
77876;SDS011;67251;50.844;7.978;2023-10-13T05:48:52;10.73;;;5.43;;
77876;SDS011;67251;50.844;7.978;2023-10-13T05:51:24;10.35;;;4.55;;
77876;SDS011;67251;50.844;7.978;2023-10-13T05:54:11;12.27;;;4.63;;
77876;SDS011;67251;50.844;7.978;2023-10-13T05:56:41;10.18;;;4.13;;
77876;SDS011;67251;50.844;7.978;2023-10-13T05:59:25;10.88;;;4.30;;
77876;SDS011;67251;50.844;7.978;2023-10-13T06:02:10;10.43;;;4.75;;
77876;SDS011;67251;50.844;7.978;2023-10-13T06:04:55;10.07;;;4.32;;
77876;SDS011;67251;50.844;7.978;2023-10-13T06:07:39;8.48;;;4.13;;
77876;SDS011;67251;50.844;7.978;2023-10-13T06:10:23;9.30;;;4.32;;
77876;SDS011;67251;50.844;7.978;2023-10-13T06:13:07;12.55;;;4.82;;
77876;SDS011;67251;50.844;7.978;2023-10-13T06:15:51;15.60;;;5.05;;
77876;SDS011;67251;50.844;7.978;2023-10-13T06:18:35;11.25;;;4.32;;
77876;SDS011;67251;50.844;7.978;2023-10-13T06:21:20;9.43;;;4.53;;
77876;SDS011;67251;50.844;7.978;2023-10-13T06:24:05;11.55;;;4.78;;
77876;SDS011;67251;50.844;7.978;2023-10-13T06:26:49;10.77;;;4.45;;
77876;SDS011;67251;50.844;7.978;2023-10-13T06:29:33;10.50;;;4.07;;
77876;SDS011;67251;50.844;7.978;2023-10-13T06:31:58;10.82;;;4.18;;
77876;SDS011;67251;50.844;7.978;2023-10-13T06:34:27;12.60;;;4.15;;
77876;SDS011;67251;50.844;7.978;2023-10-13T06:37:14;9.82;;;4.30;;
77876;SDS011;67251;50.844;7.978;2023-10-13T06:40:02;11.50;;;4.38;;
77876;SDS011;67251;50.844;7.978;2023-10-13T06:42:47;12.50;;;4.43;;
77876;SDS011;67251;50.844;7.978;2023-10-13T06:45:13;10.20;;;4.22;;
77876;SDS011;67251;50.844;7.978;2023-10-13T06:47:41;10.68;;;3.80;;
77876;SDS011;67251;50.844;7.978;2023-10-13T06:50:10;9.43;;;4.03;;
77876;SDS011;67251;50.844;7.978;2023-10-13T06:52:44;8.95;;;3.50;;
77876;SDS011;67251;50.844;7.978;2023-10-13T06:55:10;8.60;;;3.45;;
77876;SDS011;67251;50.844;7.978;2023-10-13T06:57:42;10.68;;;4.40;;
77876;SDS011;67251;50.844;7.978;2023-10-13T07:00:09;8.68;;;3.97;;
77876;SDS011;67251;50.844;7.978;2023-10-13T07:02:44;10.38;;;3.70;;
77876;SDS011;67251;50.844;7.978;2023-10-13T07:05:10;9.57;;;3.70;;
77876;SDS011;67251;50.844;7.978;2023-10-13T07:07:38;10.50;;;4.20;;
77876;SDS011;67251;50.844;7.978;2023-10-13T07:10:09;8.00;;;3.40;;
77876;SDS011;67251;50.844;7.978;2023-10-13T07:12:37;9.68;;;4.05;;
77876;SDS011;67251;50.844;7.978;2023-10-13T07:15:08;9.60;;;3.60;;
77876;SDS011;67251;50.844;7.978;2023-10-13T07:17:45;8.38;;;3.67;;
77876;SDS011;67251;50.844;7.978;2023-10-13T07:20:12;14.07;;;3.88;;
77876;SDS011;67251;50.844;7.978;2023-10-13T07:22:48;12.68;;;4.03;;
77876;SDS011;67251;50.844;7.978;2023-10-13T07:25:27;10.25;;;3.30;;
77876;SDS011;67251;50.844;7.978;2023-10-13T07:27:57;8.85;;;3.10;;
77876;SDS011;67251;50.844;7.978;2023-10-13T07:30:24;11.10;;;3.88;;
77876;SDS011;67251;50.844;7.978;2023-10-13T07:32:52;10.88;;;3.70;;
77876;SDS011;67251;50.844;7.978;2023-10-13T07:35:18;8.27;;;3.28;;
77876;SDS011;67251;50.844;7.978;2023-10-13T07:37:45;10.70;;;3.70;;
77876;SDS011;67251;50.844;7.978;2023-10-13T07:40:13;12.02;;;3.80;;
77876;SDS011;67251;50.844;7.978;2023-10-13T07:42:54;10.13;;;3.72;;
77876;SDS011;67251;50.844;7.978;2023-10-13T07:45:28;8.70;;;3.38;;
77876;SDS011;67251;50.844;7.978;2023-10-13T07:48:03;14.60;;;4.20;;
77876;SDS011;67251;50.844;7.978;2023-10-13T07:50:41;11.95;;;3.22;;
77876;SDS011;67251;50.844;7.978;2023-10-13T07:53:07;12.35;;;3.88;;
77876;SDS011;67251;50.844;7.978;2023-10-13T07:55:49;10.55;;;3.33;;
77876;SDS011;67251;50.844;7.978;2023-10-13T07:58:21;10.75;;;3.42;;
77876;SDS011;67251;50.844;7.978;2023-10-13T08:00:53;10.73;;;4.10;;
77876;SDS011;67251;50.844;7.978;2023-10-13T08:03:31;11.45;;;3.35;;
77876;SDS011;67251;50.844;7.978;2023-10-13T08:06:08;9.57;;;3.45;;
77876;SDS011;67251;50.844;7.978;2023-10-13T08:08:36;10.23;;;3.05;;
77876;SDS011;67251;50.844;7.978;2023-10-13T08:11:06;8.95;;;3.45;;
77876;SDS011;67251;50.844;7.978;2023-10-13T08:13:37;7.95;;;3.15;;
77876;SDS011;67251;50.844;7.978;2023-10-13T08:16:03;10.90;;;3.35;;
77876;SDS011;67251;50.844;7.978;2023-10-13T08:18:34;12.10;;;3.83;;
77876;SDS011;67251;50.844;7.978;2023-10-13T08:21:01;10.85;;;3.38;;
77876;SDS011;67251;50.844;7.978;2023-10-13T08:23:31;10.30;;;3.17;;
77876;SDS011;67251;50.844;7.978;2023-10-13T08:26:19;11.95;;;3.17;;
77876;SDS011;67251;50.844;7.978;2023-10-13T08:29:14;9.43;;;3.40;;
77876;SDS011;67251;50.844;7.978;2023-10-13T08:31:48;9.82;;;3.53;;
77876;SDS011;67251;50.844;7.978;2023-10-13T08:34:32;7.25;;;3.50;;
77876;SDS011;67251;50.844;7.978;2023-10-13T08:37:07;14.13;;;3.35;;
77876;SDS011;67251;50.844;7.978;2023-10-13T08:39:48;9.95;;;2.80;;
77876;SDS011;67251;50.844;7.978;2023-10-13T08:42:29;9.80;;;2.95;;
77876;SDS011;67251;50.844;7.978;2023-10-13T08:45:08;8.30;;;3.30;;
77876;SDS011;67251;50.844;7.978;2023-10-13T08:48:06;10.85;;;3.53;;
77876;SDS011;67251;50.844;7.978;2023-10-13T08:50:33;7.97;;;3.17;;
77876;SDS011;67251;50.844;7.978;2023-10-13T08:53:18;8.52;;;2.88;;
77876;SDS011;67251;50.844;7.978;2023-10-13T08:55:51;11.27;;;3.15;;
77876;SDS011;67251;50.844;7.978;2023-10-13T08:58:43;10.63;;;3.17;;
77876;SDS011;67251;50.844;7.978;2023-10-13T09:01:18;11.07;;;3.60;;
77876;SDS011;67251;50.844;7.978;2023-10-13T09:03:58;9.50;;;3.22;;
77876;SDS011;67251;50.844;7.978;2023-10-13T09:06:52;9.75;;;3.35;;
77876;SDS011;67251;50.844;7.978;2023-10-13T09:09:44;12.43;;;3.83;;
77876;SDS011;67251;50.844;7.978;2023-10-13T09:14:44;8.45;;;3.10;;
77876;SDS011;67251;50.844;7.978;2023-10-13T09:17:23;10.82;;;3.42;;
77876;SDS011;67251;50.844;7.978;2023-10-13T09:19:59;6.90;;;2.72;;
77876;SDS011;67251;50.844;7.978;2023-10-13T09:22:45;10.50;;;3.47;;
77876;SDS011;67251;50.844;7.978;2023-10-13T09:25:29;9.40;;;3.05;;
77876;SDS011;67251;50.844;7.978;2023-10-13T09:28:00;11.10;;;3.60;;
77876;SDS011;67251;50.844;7.978;2023-10-13T09:30:49;8.57;;;3.30;;
77876;SDS011;67251;50.844;7.978;2023-10-13T09:33:28;10.52;;;3.90;;
77876;SDS011;67251;50.844;7.978;2023-10-13T09:38:42;8.73;;;3.17;;
77876;SDS011;67251;50.844;7.978;2023-10-13T09:41:28;11.60;;;3.50;;
77876;SDS011;67251;50.844;7.978;2023-10-13T09:46:23;12.55;;;4.25;;
77876;SDS011;67251;50.844;7.978;2023-10-13T09:49:08;9.23;;;4.25;;
77876;SDS011;67251;50.844;7.978;2023-10-13T09:51:47;9.15;;;3.65;;
77876;SDS011;67251;50.844;7.978;2023-10-13T09:54:15;8.75;;;3.42;;
77876;SDS011;67251;50.844;7.978;2023-10-13T09:56:46;9.55;;;3.53;;
77876;SDS011;67251;50.844;7.978;2023-10-13T09:59:19;10.77;;;4.10;;
77876;SDS011;67251;50.844;7.978;2023-10-13T10:01:49;12.35;;;4.00;;
77876;SDS011;67251;50.844;7.978;2023-10-13T10:04:17;14.30;;;4.00;;
77876;SDS011;67251;50.844;7.978;2023-10-13T10:06:51;8.98;;;4.07;;
77876;SDS011;67251;50.844;7.978;2023-10-13T10:09:27;10.15;;;4.07;;
77876;SDS011;67251;50.844;7.978;2023-10-13T10:15:44;9.55;;;4.03;;
77876;SDS011;67251;50.844;7.978;2023-10-13T10:17:59;9.40;;;3.85;;
77876;SDS011;67251;50.844;7.978;2023-10-13T10:20:32;8.13;;;4.15;;
77876;SDS011;67251;50.844;7.978;2023-10-13T10:25:38;10.15;;;3.75;;
77876;SDS011;67251;50.844;7.978;2023-10-13T10:28:09;10.85;;;4.40;;
77876;SDS011;67251;50.844;7.978;2023-10-13T10:30:40;11.18;;;4.30;;
77876;SDS011;67251;50.844;7.978;2023-10-13T10:33:09;9.65;;;4.20;;
77876;SDS011;67251;50.844;7.978;2023-10-13T10:35:41;8.63;;;3.83;;
77876;SDS011;67251;50.844;7.978;2023-10-13T10:38:14;9.25;;;4.90;;
77876;SDS011;67251;50.844;7.978;2023-10-13T10:46:28;7.85;;;3.50;;
77876;SDS011;67251;50.844;7.978;2023-10-13T10:48:56;10.27;;;3.75;;
77876;SDS011;67251;50.844;7.978;2023-10-13T10:51:26;12.05;;;3.90;;
77876;SDS011;67251;50.844;7.978;2023-10-13T10:53:57;9.73;;;4.13;;
77876;SDS011;67251;50.844;7.978;2023-10-13T10:56:23;8.10;;;4.03;;
77876;SDS011;67251;50.844;7.978;2023-10-13T10:58:53;9.43;;;4.40;;
77876;SDS011;67251;50.844;7.978;2023-10-13T11:01:21;9.95;;;4.45;;
77876;SDS011;67251;50.844;7.978;2023-10-13T11:03:56;9.13;;;4.35;;
77876;SDS011;67251;50.844;7.978;2023-10-13T11:06:27;10.00;;;3.85;;
77876;SDS011;67251;50.844;7.978;2023-10-13T11:09:03;12.65;;;4.38;;
77876;SDS011;67251;50.844;7.978;2023-10-13T11:11:29;7.70;;;3.70;;
77876;SDS011;67251;50.844;7.978;2023-10-13T11:14:00;8.82;;;3.72;;
77876;SDS011;67251;50.844;7.978;2023-10-13T11:19:16;10.90;;;4.68;;
77876;SDS011;67251;50.844;7.978;2023-10-13T11:21:45;8.90;;;3.85;;
77876;SDS011;67251;50.844;7.978;2023-10-13T11:24:12;8.95;;;4.22;;
77876;SDS011;67251;50.844;7.978;2023-10-13T11:26:38;9.45;;;4.10;;
77876;SDS011;67251;50.844;7.978;2023-10-13T11:29:17;11.07;;;3.92;;
77876;SDS011;67251;50.844;7.978;2023-10-13T11:31:46;9.32;;;3.88;;
77876;SDS011;67251;50.844;7.978;2023-10-13T11:34:18;9.02;;;3.72;;
77876;SDS011;67251;50.844;7.978;2023-10-13T11:36:44;8.88;;;4.20;;
77876;SDS011;67251;50.844;7.978;2023-10-13T11:39:09;11.98;;;3.75;;
77876;SDS011;67251;50.844;7.978;2023-10-13T11:41:42;9.63;;;3.90;;
77876;SDS011;67251;50.844;7.978;2023-10-13T11:44:15;8.82;;;3.40;;
77876;SDS011;67251;50.844;7.978;2023-10-13T11:46:43;12.65;;;4.45;;
77876;SDS011;67251;50.844;7.978;2023-10-13T11:49:10;11.35;;;4.45;;
77876;SDS011;67251;50.844;7.978;2023-10-13T11:51:39;9.02;;;4.05;;
77876;SDS011;67251;50.844;7.978;2023-10-13T11:54:11;9.40;;;4.45;;
77876;SDS011;67251;50.844;7.978;2023-10-13T11:56:46;9.82;;;3.95;;
77876;SDS011;67251;50.844;7.978;2023-10-13T11:59:12;11.27;;;4.00;;
77876;SDS011;67251;50.844;7.978;2023-10-13T12:01:46;8.02;;;3.83;;
77876;SDS011;67251;50.844;7.978;2023-10-13T12:04:31;9.60;;;4.60;;
77876;SDS011;67251;50.844;7.978;2023-10-13T12:07:08;8.90;;;3.72;;
77876;SDS011;67251;50.844;7.978;2023-10-13T12:09:43;9.80;;;3.35;;
77876;SDS011;67251;50.844;7.978;2023-10-13T12:12:18;8.27;;;4.05;;
77876;SDS011;67251;50.844;7.978;2023-10-13T12:14:44;10.30;;;4.18;;
77876;SDS011;67251;50.844;7.978;2023-10-13T12:17:19;9.43;;;3.72;;
77876;SDS011;67251;50.844;7.978;2023-10-13T12:19:56;11.00;;;4.40;;
77876;SDS011;67251;50.844;7.978;2023-10-13T12:22:25;10.80;;;4.28;;
77876;SDS011;67251;50.844;7.978;2023-10-13T12:24:53;8.40;;;3.50;;
77876;SDS011;67251;50.844;7.978;2023-10-13T12:27:21;8.75;;;4.35;;
77876;SDS011;67251;50.844;7.978;2023-10-13T12:30:00;6.65;;;3.42;;
77876;SDS011;67251;50.844;7.978;2023-10-13T12:32:32;8.85;;;4.22;;
77876;SDS011;67251;50.844;7.978;2023-10-13T12:34:59;11.70;;;4.43;;
77876;SDS011;67251;50.844;7.978;2023-10-13T12:37:26;9.50;;;3.90;;
77876;SDS011;67251;50.844;7.978;2023-10-13T12:40:15;11.05;;;3.70;;
77876;SDS011;67251;50.844;7.978;2023-10-13T12:43:00;7.97;;;3.50;;
77876;SDS011;67251;50.844;7.978;2023-10-13T12:45:44;8.57;;;3.65;;
77876;SDS011;67251;50.844;7.978;2023-10-13T12:48:31;9.18;;;3.58;;
77876;SDS011;67251;50.844;7.978;2023-10-13T12:51:16;9.55;;;4.32;;
77876;SDS011;67251;50.844;7.978;2023-10-13T12:54:00;10.65;;;4.22;;
77876;SDS011;67251;50.844;7.978;2023-10-13T12:56:45;7.85;;;3.53;;
77876;SDS011;67251;50.844;7.978;2023-10-13T12:59:10;8.50;;;4.50;;
77876;SDS011;67251;50.844;7.978;2023-10-13T13:01:38;8.07;;;3.95;;
77876;SDS011;67251;50.844;7.978;2023-10-13T13:04:08;8.10;;;4.00;;
77876;SDS011;67251;50.844;7.978;2023-10-13T13:06:41;10.70;;;4.25;;
77876;SDS011;67251;50.844;7.978;2023-10-13T13:09:06;12.07;;;3.53;;
77876;SDS011;67251;50.844;7.978;2023-10-13T13:11:35;9.93;;;3.80;;
77876;SDS011;67251;50.844;7.978;2023-10-13T13:14:07;7.47;;;3.47;;
77876;SDS011;67251;50.844;7.978;2023-10-13T13:16:33;9.63;;;3.70;;
77876;SDS011;67251;50.844;7.978;2023-10-13T13:18:58;14.38;;;4.78;;
77876;SDS011;67251;50.844;7.978;2023-10-13T13:21:24;8.95;;;3.90;;
77876;SDS011;67251;50.844;7.978;2023-10-13T13:23:49;7.65;;;3.78;;
77876;SDS011;67251;50.844;7.978;2023-10-13T13:26:23;10.48;;;4.05;;
77876;SDS011;67251;50.844;7.978;2023-10-13T13:28:48;9.75;;;3.30;;
77876;SDS011;67251;50.844;7.978;2023-10-13T13:31:20;8.80;;;3.22;;
77876;SDS011;67251;50.844;7.978;2023-10-13T13:37:16;9.40;;;4.20;;
77876;SDS011;67251;50.844;7.978;2023-10-13T13:39:44;7.30;;;4.38;;
77876;SDS011;67251;50.844;7.978;2023-10-13T13:42:10;7.95;;;3.58;;
77876;SDS011;67251;50.844;7.978;2023-10-13T13:44:44;9.52;;;3.90;;
77876;SDS011;67251;50.844;7.978;2023-10-13T13:47:14;7.28;;;3.60;;
77876;SDS011;67251;50.844;7.978;2023-10-13T13:49:41;9.05;;;3.88;;
77876;SDS011;67251;50.844;7.978;2023-10-13T13:52:30;9.93;;;3.53;;
77876;SDS011;67251;50.844;7.978;2023-10-13T13:54:58;9.13;;;3.92;;
77876;SDS011;67251;50.844;7.978;2023-10-13T13:57:31;9.23;;;3.63;;
77876;SDS011;67251;50.844;7.978;2023-10-13T13:59:57;12.52;;;4.78;;
77876;SDS011;67251;50.844;7.978;2023-10-13T14:02:22;10.10;;;3.50;;
77876;SDS011;67251;50.844;7.978;2023-10-13T14:04:48;7.85;;;3.22;;
77876;SDS011;67251;50.844;7.978;2023-10-13T14:07:18;8.20;;;2.90;;
77876;SDS011;67251;50.844;7.978;2023-10-13T14:10:01;10.38;;;3.63;;
77876;SDS011;67251;50.844;7.978;2023-10-13T14:12:32;9.30;;;3.40;;
77876;SDS011;67251;50.844;7.978;2023-10-13T14:15:07;7.80;;;4.25;;
77876;SDS011;67251;50.844;7.978;2023-10-13T14:17:45;10.82;;;3.60;;
77876;SDS011;67251;50.844;7.978;2023-10-13T14:20:14;10.02;;;3.80;;
77876;SDS011;67251;50.844;7.978;2023-10-13T14:22:45;9.02;;;4.00;;
77876;SDS011;67251;50.844;7.978;2023-10-13T14:25:13;7.78;;;3.45;;
77876;SDS011;67251;50.844;7.978;2023-10-13T14:27:39;10.15;;;3.75;;
77876;SDS011;67251;50.844;7.978;2023-10-13T14:30:08;10.80;;;3.88;;
77876;SDS011;67251;50.844;7.978;2023-10-13T14:32:34;7.57;;;3.50;;
77876;SDS011;67251;50.844;7.978;2023-10-13T14:35:05;9.85;;;3.90;;
77876;SDS011;67251;50.844;7.978;2023-10-13T14:37:39;9.65;;;4.55;;
77876;SDS011;67251;50.844;7.978;2023-10-13T14:40:07;9.25;;;3.58;;
77876;SDS011;67251;50.844;7.978;2023-10-13T14:42:37;9.32;;;3.88;;
77876;SDS011;67251;50.844;7.978;2023-10-13T14:45:05;8.98;;;3.30;;
77876;SDS011;67251;50.844;7.978;2023-10-13T14:47:38;10.57;;;3.97;;
77876;SDS011;67251;50.844;7.978;2023-10-13T14:50:05;11.50;;;3.70;;
77876;SDS011;67251;50.844;7.978;2023-10-13T14:52:32;9.52;;;3.88;;
77876;SDS011;67251;50.844;7.978;2023-10-13T14:55:00;7.63;;;3.90;;
77876;SDS011;67251;50.844;7.978;2023-10-13T14:57:25;10.02;;;4.07;;
77876;SDS011;67251;50.844;7.978;2023-10-13T14:59:52;10.82;;;4.03;;
77876;SDS011;67251;50.844;7.978;2023-10-13T15:02:18;8.88;;;3.53;;
77876;SDS011;67251;50.844;7.978;2023-10-13T15:04:46;11.60;;;3.85;;
77876;SDS011;67251;50.844;7.978;2023-10-13T15:07:16;9.30;;;3.45;;
77876;SDS011;67251;50.844;7.978;2023-10-13T15:09:42;10.70;;;3.72;;
77876;SDS011;67251;50.844;7.978;2023-10-13T15:12:11;7.47;;;3.45;;
77876;SDS011;67251;50.844;7.978;2023-10-13T15:14:40;7.38;;;3.42;;
77876;SDS011;67251;50.844;7.978;2023-10-13T15:17:09;9.65;;;4.03;;
77876;SDS011;67251;50.844;7.978;2023-10-13T15:19:37;9.93;;;3.70;;
77876;SDS011;67251;50.844;7.978;2023-10-13T15:22:08;9.30;;;3.80;;
77876;SDS011;67251;50.844;7.978;2023-10-13T15:24:46;10.18;;;4.10;;
77876;SDS011;67251;50.844;7.978;2023-10-13T15:27:24;7.90;;;3.70;;
77876;SDS011;67251;50.844;7.978;2023-10-13T15:29:56;11.57;;;4.20;;
77876;SDS011;67251;50.844;7.978;2023-10-13T15:32:24;8.05;;;3.58;;
77876;SDS011;67251;50.844;7.978;2023-10-13T15:35:21;9.35;;;3.72;;
77876;SDS011;67251;50.844;7.978;2023-10-13T15:37:48;10.75;;;4.15;;
77876;SDS011;67251;50.844;7.978;2023-10-13T15:40:14;8.95;;;3.80;;
77876;SDS011;67251;50.844;7.978;2023-10-13T15:42:43;8.57;;;4.22;;
77876;SDS011;67251;50.844;7.978;2023-10-13T15:45:10;11.25;;;4.28;;
77876;SDS011;67251;50.844;7.978;2023-10-13T15:47:50;10.70;;;3.88;;
77876;SDS011;67251;50.844;7.978;2023-10-13T15:50:16;8.38;;;3.70;;
77876;SDS011;67251;50.844;7.978;2023-10-13T15:52:45;10.73;;;3.50;;
77876;SDS011;67251;50.844;7.978;2023-10-13T15:55:15;7.47;;;3.63;;